LRCV - CRAIOVA

Compiled: 16:37:39 on 20/10/2018

Latest METAR/SPECI Reports

METAR LRCV 201630Z AUTO 16003KT 9999 NCD 14/10 Q1019=

Previous reports

METAR LRCV 201600Z 18003KT CAVOK 16/11 Q1019=
METAR LRCV 201530Z 22003KT CAVOK 17/11 Q1019=
METAR LRCV 201500Z 23002KT CAVOK 17/11 Q1019=
METAR LRCV 201430Z 25004KT 220V280 CAVOK 18/11 Q1019 R09/CLRD//=

Latest TAF report

TAF LRCV 201400Z 2015/2024 VRB04KT CAVOK=

Valid WARNINGS

No valid warnings for LRCV